Time;durP1;ratioP1;P1;durP2;ratioP2;P2;SDS_P1;SDS_P2;PMS_P1;PMS_P2;Temp;Humidity;BMP_temperature;BMP_pressure;BME280_temperature;BME280_humidity;BME280_pressure;Samples;Min_cycle;Max_cycle;Signal;HPM_P1;HPM_P2
2020/12/24 00:01:09;;;;;;;;;8.00;8.00;;;;;;;;5058965;28;8853;-72
2020/12/24 00:03:34;;;;;;;;;9.00;8.25;;;;;;;;5061639;28;11497;-73
2020/12/24 00:06:03;;;;;;;;;7.75;6.00;;;;;;;;5054169;28;8838;-73
2020/12/24 00:08:29;;;;;;;;;6.00;6.00;;;;;;;;5061231;28;8901;-72
2020/12/24 00:10:55;;;;;;;;;7.50;7.50;;;;;;;;5059211;28;11487;-72
2020/12/24 00:13:21;;;;;;;;;6.00;6.00;;;;;;;;5059793;28;8837;-72
2020/12/24 00:15:47;;;;;;;;;8.25;6.00;;;;;;;;5059827;28;8946;-72
2020/12/24 00:18:13;;;;;;;;;5.50;5.50;;;;;;;;5059083;28;8848;-72
2020/12/24 00:20:39;;;;;;;;;5.25;5.00;;;;;;;;5060643;28;11088;-72
2020/12/24 00:23:06;;;;;;;;;3.00;3.00;;;;;;;;5058104;28;8980;-72
2020/12/24 00:25:32;;;;;;;;;5.50;5.00;;;;;;;;5061558;28;8850;-73
2020/12/24 00:27:58;;;;;;;;;5.50;5.50;;;;;;;;5058116;28;11538;-72
2020/12/24 00:30:24;;;;;;;;;5.00;5.00;;;;;;;;5060475;28;8880;-73
2020/12/24 00:32:51;;;;;;;;;5.00;5.00;;;;;;;;5059127;28;8876;-73
2020/12/24 00:35:17;;;;;;;;;3.00;3.00;;;;;;;;5059214;28;9011;-72
2020/12/24 00:37:42;;;;;;;;;3.25;3.25;;;;;;;;5060174;28;11599;-73
2020/12/24 00:40:08;;;;;;;;;6.00;4.75;;;;;;;;5057958;28;12328;-72
2020/12/24 00:42:34;;;;;;;;;4.50;4.50;;;;;;;;5061451;28;8855;-73
2020/12/24 00:45:00;;;;;;;;;3.00;3.00;;;;;;;;5053705;28;8841;-72
2020/12/24 00:47:26;;;;;;;;;6.75;3.25;;;;;;;;5060740;28;8957;-73
2020/12/24 00:49:54;;;;;;;;;5.50;4.50;;;;;;;;5058800;28;8843;-73
2020/12/24 00:52:20;;;;;;;;;5.00;4.00;;;;;;;;5059667;28;8841;-73
2020/12/24 00:54:45;;;;;;;;;5.50;5.50;;;;;;;;5060991;28;11712;-73
2020/12/24 00:57:11;;;;;;;;;3.00;3.00;;;;;;;;5062468;28;11514;-73
2020/12/24 00:59:37;;;;;;;;;4.75;2.75;;;;;;;;5064992;28;8953;-72
2020/12/24 01:02:03;;;;;;;;;5.00;3.00;;;;;;;;5061884;28;8840;-72
2020/12/24 01:04:29;;;;;;;;;6.00;5.50;;;;;;;;5064871;28;8997;-72
2020/12/24 01:06:56;;;;;;;;;5.25;4.00;;;;;;;;5062186;28;11532;-72
2020/12/24 01:09:22;;;;;;;;;8.25;5.75;;;;;;;;5063828;28;8979;-72
2020/12/24 01:11:48;;;;;;;;;6.00;3.00;;;;;;;;5063031;28;11541;-71
2020/12/24 01:14:14;;;;;;;;;3.75;3.75;;;;;;;;5065368;28;8962;-71
2020/12/24 01:16:40;;;;;;;;;6.00;4.25;;;;;;;;5062009;28;8849;-72
2020/12/24 01:19:06;;;;;;;;;6.50;5.75;;;;;;;;5064733;28;8835;-71
2020/12/24 01:21:32;;;;;;;;;3.00;3.00;;;;;;;;5061213;28;8976;-72
2020/12/24 01:23:58;;;;;;;;;5.25;4.50;;;;;;;;5064340;28;8861;-72
2020/12/24 01:26:27;;;;;;;;;4.50;4.50;;;;;;;;5062182;28;8996;-72
2020/12/24 01:28:53;;;;;;;;;7.00;6.00;;;;;;;;5063844;28;12238;-71
2020/12/24 01:31:19;;;;;;;;;4.50;3.00;;;;;;;;5062214;28;11494;-72
2020/12/24 01:33:45;;;;;;;;;3.50;3.50;;;;;;;;5062315;28;8845;-72
2020/12/24 01:36:11;;;;;;;;;3.25;2.50;;;;;;;;5063286;28;8961;-71
2020/12/24 01:38:39;;;;;;;;;5.00;3.00;;;;;;;;5065358;28;8870;-73
2020/12/24 01:41:06;;;;;;;;;3.50;3.00;;;;;;;;5061466;28;8944;-72
2020/12/24 01:43:31;;;;;;;;;5.00;3.00;;;;;;;;5064123;28;11620;-72
2020/12/24 01:45:58;;;;;;;;;3.00;3.00;;;;;;;;5061063;28;11506;-71
2020/12/24 01:48:24;;;;;;;;;6.50;3.75;;;;;;;;5063602;28;8969;-72
2020/12/24 01:50:50;;;;;;;;;5.25;5.00;;;;;;;;5061996;28;11610;-72
2020/12/24 01:53:19;;;;;;;;;5.25;5.25;;;;;;;;5061979;28;11628;-71
2020/12/24 01:55:45;;;;;;;;;5.50;3.50;;;;;;;;5062619;28;11493;-72
2020/12/24 01:58:12;;;;;;;;;2.25;2.00;;;;;;;;5061188;28;11629;-72
2020/12/24 02:00:38;;;;;;;;;3.50;3.50;;;;;;;;5063311;28;11584;-72
2020/12/24 02:03:04;;;;;;;;;5.00;3.50;;;;;;;;5060524;28;11540;-72
2020/12/24 02:05:30;;;;;;;;;3.50;3.50;;;;;;;;5063432;28;8997;-72
2020/12/24 02:07:56;;;;;;;;;5.50;3.00;;;;;;;;5060943;28;8849;-72
2020/12/24 02:10:21;;;;;;;;;4.25;4.00;;;;;;;;5062802;28;8841;-71
2020/12/24 02:12:47;;;;;;;;;4.00;3.75;;;;;;;;5061944;28;8866;-72
2020/12/24 02:15:14;;;;;;;;;4.25;2.50;;;;;;;;5061399;28;8865;-71
2020/12/24 02:17:40;;;;;;;;;3.50;3.50;;;;;;;;5062940;28;8830;-71
2020/12/24 02:20:06;;;;;;;;;5.00;5.00;;;;;;;;5060523;28;11601;-70
2020/12/24 02:22:33;;;;;;;;;4.00;4.00;;;;;;;;5063826;28;8850;-72
2020/12/24 02:24:59;;;;;;;;;3.00;2.00;;;;;;;;5056102;28;8998;-71
2020/12/24 02:27:24;;;;;;;;;2.00;2.00;;;;;;;;5062875;28;11489;-72
2020/12/24 02:29:50;;;;;;;;;4.50;2.25;;;;;;;;5061038;28;8867;-72
2020/12/24 02:32:16;;;;;;;;;3.00;3.00;;;;;;;;5061329;28;8848;-72
2020/12/24 02:34:42;;;;;;;;;4.00;2.00;;;;;;;;5062112;28;8855;-72
2020/12/24 02:37:09;;;;;;;;;6.00;3.50;;;;;;;;5060494;28;8853;-72
2020/12/24 02:39:36;;;;;;;;;6.00;3.25;;;;;;;;5063179;28;8842;-72
2020/12/24 02:42:02;;;;;;;;;4.75;4.75;;;;;;;;5059965;28;11641;-73
2020/12/24 02:44:27;;;;;;;;;3.25;3.25;;;;;;;;5063214;28;11533;-73
2020/12/24 02:46:53;;;;;;;;;3.25;3.25;;;;;;;;5060432;28;8965;-71
2020/12/24 02:49:19;;;;;;;;;5.50;3.00;;;;;;;;5061687;28;8852;-71
2020/12/24 02:51:45;;;;;;;;;2.50;2.50;;;;;;;;5061823;28;8847;-71
2020/12/24 02:54:11;;;;;;;;;2.00;2.00;;;;;;;;5060415;28;9628;-70
2020/12/24 02:56:38;;;;;;;;;4.50;2.75;;;;;;;;5062453;28;8957;-72
2020/12/24 02:59:04;;;;;;;;;5.00;3.25;;;;;;;;5059976;28;8956;-71
2020/12/24 03:01:31;;;;;;;;;2.75;2.50;;;;;;;;5062592;28;11496;-72
2020/12/24 03:03:57;;;;;;;;;2.25;2.25;;;;;;;;5059991;28;8879;-71
2020/12/24 03:06:23;;;;;;;;;2.25;2.25;;;;;;;;5061562;28;11506;-70
2020/12/24 03:08:49;;;;;;;;;2.75;2.75;;;;;;;;5060717;28;8855;-71
2020/12/24 03:11:15;;;;;;;;;5.00;3.25;;;;;;;;5060375;28;8889;-72
2020/12/24 03:13:41;;;;;;;;;3.00;3.00;;;;;;;;5061845;28;8923;-71
2020/12/24 03:16:07;;;;;;;;;2.25;2.25;;;;;;;;5059579;28;9644;-71
2020/12/24 03:18:33;;;;;;;;;2.75;2.75;;;;;;;;5061814;28;11605;-71
2020/12/24 03:20:59;;;;;;;;;5.75;4.00;;;;;;;;5059329;28;8885;-71
2020/12/24 03:23:25;;;;;;;;;3.00;3.00;;;;;;;;5061661;28;8957;-71
2020/12/24 03:25:51;;;;;;;;;5.25;2.25;;;;;;;;5060445;28;8846;-71
2020/12/24 03:28:17;;;;;;;;;6.25;3.00;;;;;;;;5060350;28;8869;-71
2020/12/24 03:30:43;;;;;;;;;3.00;3.00;;;;;;;;5061168;28;8950;-70
2020/12/24 03:33:09;;;;;;;;;3.00;3.00;;;;;;;;5059293;28;9064;-72
2020/12/24 03:35:35;;;;;;;;;5.00;2.50;;;;;;;;5062109;28;11508;-72
2020/12/24 03:38:01;;;;;;;;;6.00;5.50;;;;;;;;5058800;28;8842;-71
2020/12/24 03:40:27;;;;;;;;;3.00;3.00;;;;;;;;5061914;28;8863;-72
2020/12/24 03:42:53;;;;;;;;;6.25;2.75;;;;;;;;5059375;28;9563;-72
2020/12/24 03:45:19;;;;;;;;;2.25;2.25;;;;;;;;5060497;28;8837;-72
2020/12/24 03:47:46;;;;;;;;;3.00;3.00;;;;;;;;5060864;28;8846;-73
2020/12/24 03:50:12;;;;;;;;;2.25;2.25;;;;;;;;5059273;28;8867;-73
2020/12/24 03:52:38;;;;;;;;;5.00;5.00;;;;;;;;5061452;28;11597;-73
2020/12/24 03:55:04;;;;;;;;;3.75;3.25;;;;;;;;5058486;28;11560;-71
2020/12/24 03:57:30;;;;;;;;;4.00;4.00;;;;;;;;5054222;28;8864;-73
2020/12/24 03:59:55;;;;;;;;;4.00;3.25;;;;;;;;5061212;28;8851;-73
2020/12/24 04:02:21;;;;;;;;;3.50;3.50;;;;;;;;5059423;28;8847;-73
2020/12/24 04:04:48;;;;;;;;;10.75;4.50;;;;;;;;5059978;28;8850;-72
2020/12/24 04:07:14;;;;;;;;;4.00;3.50;;;;;;;;5060119;28;8912;-73
2020/12/24 04:09:40;;;;;;;;;4.25;2.75;;;;;;;;5059171;28;11692;-72
2020/12/24 04:12:06;;;;;;;;;5.00;5.00;;;;;;;;5061046;28;8944;-72
2020/12/24 04:14:32;;;;;;;;;1.25;1.25;;;;;;;;5058393;28;8853;-72
2020/12/24 04:16:58;;;;;;;;;4.00;4.00;;;;;;;;5061372;28;8957;-74
2020/12/24 04:19:24;;;;;;;;;5.00;3.00;;;;;;;;5058726;28;8896;-73
2020/12/24 04:21:50;;;;;;;;;3.00;3.00;;;;;;;;5060534;28;8853;-73
2020/12/24 04:24:16;;;;;;;;;4.00;4.00;;;;;;;;5059455;28;8908;-73
2020/12/24 04:26:42;;;;;;;;;4.50;3.00;;;;;;;;5059085;28;12254;-73
2020/12/24 04:29:08;;;;;;;;;3.00;3.00;;;;;;;;5060746;28;8827;-72
2020/12/24 04:31:34;;;;;;;;;6.25;3.00;;;;;;;;5058045;28;8846;-72
2020/12/24 04:34:00;;;;;;;;;6.00;5.00;;;;;;;;5061426;28;8835;-73
2020/12/24 04:36:26;;;;;;;;;6.00;5.50;;;;;;;;5059092;28;8988;-73
2020/12/24 04:38:53;;;;;;;;;3.00;3.00;;;;;;;;5060123;28;8849;-72
2020/12/24 04:41:18;;;;;;;;;8.00;4.00;;;;;;;;5059646;28;8970;-72
2020/12/24 04:43:45;;;;;;;;;3.50;3.50;;;;;;;;5059333;28;11531;-72
2020/12/24 04:46:13;;;;;;;;;5.00;4.00;;;;;;;;5060500;28;8862;-72
2020/12/24 04:48:39;;;;;;;;;7.25;3.25;;;;;;;;5058285;28;11522;-72
2020/12/24 04:51:06;;;;;;;;;6.50;6.50;;;;;;;;5061898;28;11596;-72
2020/12/24 04:53:32;;;;;;;;;9.00;8.50;;;;;;;;5053896;28;11504;-72
2020/12/24 04:56:03;;;;;;;;;4.25;4.25;;;;;;;;5061113;28;11536;-72
2020/12/24 04:58:29;;;;;;;;;7.00;7.00;;;;;;;;5057882;28;8972;-72
2020/12/24 05:00:55;;;;;;;;;10.50;9.00;;;;;;;;5060183;28;11498;-72
2020/12/24 05:03:21;;;;;;;;;7.75;7.75;;;;;;;;5058898;28;8950;-73
2020/12/24 05:05:47;;;;;;;;;8.00;6.00;;;;;;;;5059123;28;11515;-70
2020/12/24 05:08:13;;;;;;;;;4.00;4.00;;;;;;;;5059668;28;8843;-72
2020/12/24 05:10:39;;;;;;;;;2.75;2.75;;;;;;;;5058064;28;8976;-73
2020/12/24 05:15:44;;;;;;;;;6.00;4.00;;;;;;;;5158251;27;14273;-72
2020/12/24 05:20:41;;;;;;;;;3.50;3.50;;;;;;;;5116493;27;13442;-73
2020/12/24 05:23:10;;;;;;;;;3.00;3.00;;;;;;;;5098793;28;11624;-73
2020/12/24 05:25:36;;;;;;;;;2.50;2.50;;;;;;;;5096037;28;11631;-73
2020/12/24 05:28:02;;;;;;;;;1.00;1.00;;;;;;;;5099062;28;11548;-72
2020/12/24 05:59:37;;;;;;;;;3.25;2.50;;;;;;;;5128394;27;13447;-72
2020/12/24 06:11:39;;;;;;;;;;;;;;;;;;5122238;27;13462;-72
2020/12/24 06:14:05;;;;;;;;;;;;;;;;;;5121691;27;7544;-74
2020/12/24 06:16:31;;;;;;;;;;;;;;;;;;5117871;27;8818;-72
2020/12/24 06:18:57;;;;;;;;;;;;;;;;;;5118730;27;8858;-72
2020/12/24 06:21:22;;;;;;;;;;;;;;;;;;5118002;28;8837;-72
2020/12/24 06:23:48;;;;;;;;;;;;;;;;;;5116894;28;7548;-83
2020/12/24 06:26:14;;;;;;;;;;;;;;;;;;5117203;27;8876;-72
2020/12/24 06:46:19;;;;;;;;;3.00;3.00;;;;;;;;5119559;27;13222;-71
2020/12/24 06:56:22;;;;;;;;;5.50;5.25;;;;;;;;5115889;27;13450;-72
2020/12/24 06:58:49;;;;;;;;;3.00;3.00;;;;;;;;5095547;28;10751;-73
2020/12/24 07:01:16;;;;;;;;;3.75;3.75;;;;;;;;5096481;28;11597;-74
2020/12/24 07:03:42;;;;;;;;;2.50;2.50;;;;;;;;5097712;28;11571;-73
2020/12/24 07:06:08;;;;;;;;;2.50;2.00;;;;;;;;5097913;28;11603;-73
2020/12/24 07:08:47;;;;;;;;;3.75;3.00;;;;;;;;5096586;28;11503;-73
2020/12/24 07:11:28;;;;;;;;;3.50;3.50;;;;;;;;5094901;28;11478;-73
2020/12/24 07:16:52;;;;;;;;;4.50;3.00;;;;;;;;5124677;27;13506;-74
2020/12/24 07:19:19;;;;;;;;;3.00;3.00;;;;;;;;5091333;28;11539;-72
2020/12/24 07:21:46;;;;;;;;;6.00;3.00;;;;;;;;5107165;28;11498;-73
2020/12/24 07:24:13;;;;;;;;;3.25;3.25;;;;;;;;5104339;28;11592;-73
2020/12/24 07:26:41;;;;;;;;;3.00;3.00;;;;;;;;5107270;28;11488;-72
2020/12/24 07:29:08;;;;;;;;;3.00;3.00;;;;;;;;5106829;28;11616;-72
2020/12/24 07:31:34;;;;;;;;;4.00;4.00;;;;;;;;5107001;28;11623;-73
2020/12/24 07:34:01;;;;;;;;;4.25;3.50;;;;;;;;5107497;28;11577;-72
2020/12/24 07:38:54;;;;;;;;;3.75;3.75;;;;;;;;5119579;27;13471;-74
2020/12/24 07:41:21;;;;;;;;;4.00;4.00;;;;;;;;5093349;28;11510;-73
2020/12/24 07:46:11;;;;;;;;;5.50;5.00;;;;;;;;5112957;27;13483;-73
2020/12/24 07:48:38;;;;;;;;;2.00;2.00;;;;;;;;5099089;28;11585;-73
2020/12/24 07:51:07;;;;;;;;;3.00;3.00;;;;;;;;5096291;28;11529;-74
2020/12/24 07:56:04;;;;;;;;;2.75;2.75;;;;;;;;5116618;27;14014;-73
2020/12/24 07:58:30;;;;;;;;;3.00;3.00;;;;;;;;5097125;28;11642;-73
2020/12/24 08:00:56;;;;;;;;;2.25;2.00;;;;;;;;5097004;28;11622;-74
2020/12/24 08:03:22;;;;;;;;;2.00;1.00;;;;;;;;5097888;28;11484;-75
2020/12/24 08:05:48;;;;;;;;;3.00;3.00;;;;;;;;5096010;28;11481;-73
2020/12/24 08:08:21;;;;;;;;;2.00;2.00;;;;;;;;5099054;28;11624;-72
2020/12/24 08:10:47;;;;;;;;;4.75;3.00;;;;;;;;5095687;28;11657;-81
2020/12/24 08:13:14;;;;;;;;;2.00;2.00;;;;;;;;5099134;28;11455;-76
2020/12/24 08:15:41;;;;;;;;;6.00;3.75;;;;;;;;5095493;28;9604;-78
2020/12/24 08:18:08;;;;;;;;;2.50;1.50;;;;;;;;5098292;28;11665;-78
2020/12/24 08:20:39;;;;;;;;;39.50;28.25;;;;;;;;5095825;28;11582;-76
2020/12/24 08:23:10;;;;;;;;;3.00;3.00;;;;;;;;5098288;28;11716;-76
2020/12/24 08:25:36;;;;;;;;;3.00;1.00;;;;;;;;5095389;28;12211;-72
2020/12/24 08:28:03;;;;;;;;;2.25;2.25;;;;;;;;5097545;28;11625;-73
2020/12/24 08:30:30;;;;;;;;;3.00;3.00;;;;;;;;5096383;28;11556;-74
2020/12/24 08:32:58;;;;;;;;;4.75;3.25;;;;;;;;5096398;28;11650;-74
2020/12/24 08:35:28;;;;;;;;;2.50;2.00;;;;;;;;5095462;28;11487;-72
2020/12/24 08:37:54;;;;;;;;;4.50;3.50;;;;;;;;5099323;28;11587;-72
2020/12/24 08:40:21;;;;;;;;;2.25;2.00;;;;;;;;5095441;28;11504;-72
2020/12/24 08:42:47;;;;;;;;;2.00;2.00;;;;;;;;5098195;28;8859;-76
2020/12/24 08:45:14;;;;;;;;;2.00;2.00;;;;;;;;5098982;28;11489;-80
2020/12/24 08:47:41;;;;;;;;;3.00;3.00;;;;;;;;5094942;28;11679;-73
2020/12/24 08:50:07;;;;;;;;;3.00;2.75;;;;;;;;5097833;28;11646;-75
2020/12/24 08:52:35;;;;;;;;;7.00;7.00;;;;;;;;4973687;27;11538;-73
2020/12/24 08:55:01;;;;;;;;;3.75;3.00;;;;;;;;5040005;28;11654;-71
2020/12/24 08:57:27;;;;;;;;;9.75;8.00;;;;;;;;5037685;28;11585;-69
2020/12/24 08:59:54;;;;;;;;;2.00;2.00;;;;;;;;5035158;28;11551;-69
2020/12/24 09:02:24;;;;;;;;;2.00;2.00;;;;;;;;5032795;28;11593;-68
2020/12/24 09:04:53;;;;;;;;;2.00;2.00;;;;;;;;5035609;28;11513;-69
2020/12/24 09:07:22;;;;;;;;;2.50;2.50;;;;;;;;5019001;28;11713;-69
2020/12/24 09:10:00;;;;;;;;;2.00;2.00;;;;;;;;5022085;28;11732;-70
2020/12/24 09:12:26;;;;;;;;;2.00;2.00;;;;;;;;5020427;28;12535;-70
2020/12/24 09:14:58;;;;;;;;;3.00;2.00;;;;;;;;5020527;28;12427;-71
2020/12/24 09:17:24;;;;;;;;;2.25;2.25;;;;;;;;5020194;28;11670;-72
2020/12/24 09:20:00;;;;;;;;;2.00;2.00;;;;;;;;5022143;28;11804;-73
2020/12/24 09:22:26;;;;;;;;;3.25;3.00;;;;;;;;5020392;28;9139;-71
2020/12/24 09:24:52;;;;;;;;;2.00;2.00;;;;;;;;5021847;28;11579;-72
2020/12/24 09:27:18;;;;;;;;;4.00;3.00;;;;;;;;5018797;28;8858;-73
2020/12/24 09:29:44;;;;;;;;;1.25;1.00;;;;;;;;5022688;28;9386;-73
2020/12/24 09:32:12;;;;;;;;;2.00;2.00;;;;;;;;5018108;28;8859;-72
2020/12/24 09:34:37;;;;;;;;;1.00;0.00;;;;;;;;5022145;28;11515;-71
2020/12/24 09:37:04;;;;;;;;;0.00;0.00;;;;;;;;5019744;28;11562;-74
2020/12/24 09:39:30;;;;;;;;;2.00;2.00;;;;;;;;5017204;28;8851;-73
2020/12/24 09:41:56;;;;;;;;;2.00;1.25;;;;;;;;5020775;28;11618;-74
2020/12/24 09:44:22;;;;;;;;;3.25;2.75;;;;;;;;5020183;28;8982;-72
2020/12/24 09:46:48;;;;;;;;;1.50;1.50;;;;;;;;5021221;28;8886;-75
2020/12/24 09:49:15;;;;;;;;;1.00;1.00;;;;;;;;5017626;28;8973;-73
2020/12/24 09:51:41;;;;;;;;;1.00;1.00;;;;;;;;5022231;28;11513;-74
2020/12/24 09:54:08;;;;;;;;;4.75;1.25;;;;;;;;5021534;28;11652;-73
2020/12/24 09:56:35;;;;;;;;;2.00;2.00;;;;;;;;5018534;28;11676;-76
2020/12/24 09:59:01;;;;;;;;;3.00;2.00;;;;;;;;5020869;28;11545;-70
2020/12/24 10:01:27;;;;;;;;;3.75;2.00;;;;;;;;5021330;28;11664;-70
2020/12/24 10:03:53;;;;;;;;;2.00;2.00;;;;;;;;5017601;28;11532;-68
2020/12/24 10:06:19;;;;;;;;;2.00;2.00;;;;;;;;5018595;28;8851;-71
2020/12/24 10:08:45;;;;;;;;;0.25;0.25;;;;;;;;5021372;28;8840;-69
2020/12/24 10:12:41;;;;;;;;;3.00;2.00;;;;;;;;5022354;27;13487;-68
2020/12/24 10:15:07;;;;;;;;;2.00;2.00;;;;;;;;5033216;28;11654;-68
2020/12/24 10:17:32;;;;;;;;;2.00;2.00;;;;;;;;5036360;28;11512;-67
2020/12/24 10:19:58;;;;;;;;;3.00;2.00;;;;;;;;5037492;28;8847;-67
2020/12/24 10:22:24;;;;;;;;;2.25;2.00;;;;;;;;5036806;28;9041;-69
2020/12/24 10:24:51;;;;;;;;;2.50;2.50;;;;;;;;5036121;28;8848;-69
2020/12/24 10:27:17;;;;;;;;;2.00;1.00;;;;;;;;5037618;28;8942;-70
2020/12/24 10:29:44;;;;;;;;;1.75;1.00;;;;;;;;5033949;28;11641;-72
2020/12/24 10:32:10;;;;;;;;;3.25;2.00;;;;;;;;5037219;28;8990;-71
2020/12/24 10:34:35;;;;;;;;;1.50;1.50;;;;;;;;5037610;28;11670;-70
2020/12/24 10:37:01;;;;;;;;;2.00;2.00;;;;;;;;5034363;28;8929;-72
2020/12/24 10:39:28;;;;;;;;;4.00;2.75;;;;;;;;5037758;28;8872;-69
2020/12/24 12:52:16;;;;;;;;;7.50;7.50;;;;;;;;5115751;27;13465;-70
2020/12/24 12:54:43;;;;;;;;;10.00;8.50;;;;;;;;5097942;28;11491;-72
2020/12/24 12:57:09;;;;;;;;;7.00;6.25;;;;;;;;5094546;28;12368;-75
2020/12/24 13:03:05;;;;;;;;;7.50;6.25;;;;;;;;5094467;27;13296;-73
2020/12/24 13:05:32;;;;;;;;;10.50;10.25;;;;;;;;5072952;28;12408;-75
2020/12/24 13:07:58;;;;;;;;;9.00;9.00;;;;;;;;5075358;28;11635;-72
2020/12/24 13:10:24;;;;;;;;;7.75;7.75;;;;;;;;5075637;28;11492;-73
2020/12/24 13:12:49;;;;;;;;;7.75;7.75;;;;;;;;5074559;28;8930;-73
2020/12/24 13:15:15;;;;;;;;;9.75;8.00;;;;;;;;5076936;28;8829;-73
2020/12/24 13:17:43;;;;;;;;;7.25;7.25;;;;;;;;5073675;28;8963;-72
2020/12/24 13:20:09;;;;;;;;;7.50;7.50;;;;;;;;5077295;28;8879;-73
2020/12/24 13:22:35;;;;;;;;;9.50;7.00;;;;;;;;5073326;28;11644;-73
2020/12/24 13:25:01;;;;;;;;;7.00;7.00;;;;;;;;5076483;28;11556;-73
2020/12/24 13:27:28;;;;;;;;;7.50;6.50;;;;;;;;5074911;28;8836;-73
2020/12/24 13:29:53;;;;;;;;;6.25;4.75;;;;;;;;5075497;28;8835;-75
2020/12/24 13:32:19;;;;;;;;;5.00;4.50;;;;;;;;5073576;28;11642;-75
2020/12/24 13:34:45;;;;;;;;;7.75;6.50;;;;;;;;5070112;28;8961;-74
2020/12/24 13:37:12;;;;;;;;;6.50;6.50;;;;;;;;5065991;28;8886;-74
2020/12/24 13:39:38;;;;;;;;;9.75;6.50;;;;;;;;5068617;28;8943;-73
2020/12/24 13:42:04;;;;;;;;;9.00;9.00;;;;;;;;5072396;28;11496;-74
2020/12/24 13:48:12;;;;;;;;;10.00;9.00;;;;;;;;5114528;27;13458;-74
2020/12/24 13:50:38;;;;;;;;;9.00;6.50;;;;;;;;5094399;28;8938;-74
2020/12/24 13:53:05;;;;;;;;;9.75;9.00;;;;;;;;5094353;28;11432;-73
2020/12/24 13:55:43;;;;;;;;;;;;;;;;;;;;;
2020/12/24 14:01:07;;;;;;;;;7.75;7.75;;;;;;;;5075584;28;11633;-76
2020/12/24 14:03:34;;;;;;;;;11.00;10.00;;;;;;;;5095891;28;11497;-76
2020/12/24 14:06:00;;;;;;;;;9.50;8.75;;;;;;;;5093065;28;11612;-80
2020/12/24 14:08:27;;;;;;;;;9.25;9.25;;;;;;;;5096135;28;11572;-77
2020/12/24 14:10:53;;;;;;;;;9.50;8.75;;;;;;;;5094224;28;8954;-79
2020/12/24 14:13:19;;;;;;;;;10.75;7.50;;;;;;;;5094491;28;12441;-79
2020/12/24 14:15:45;;;;;;;;;8.25;8.25;;;;;;;;5098112;28;8860;-78
2020/12/24 14:18:11;;;;;;;;;9.50;8.75;;;;;;;;5097996;28;8958;-78
2020/12/24 14:20:40;;;;;;;;;8.50;8.00;;;;;;;;5101777;28;8967;-79
2020/12/24 14:23:09;;;;;;;;;13.25;9.00;;;;;;;;5097769;28;9032;-78
2020/12/24 14:25:38;;;;;;;;;12.50;10.50;;;;;;;;5094823;28;11588;-78
2020/12/24 14:28:04;;;;;;;;;9.00;6.00;;;;;;;;5102369;28;11534;-79
2020/12/24 14:30:29;;;;;;;;;7.00;5.25;;;;;;;;5100348;28;11487;-78
2020/12/24 14:32:55;;;;;;;;;7.75;7.00;;;;;;;;5061705;27;11141;-76
2020/12/24 14:35:21;;;;;;;;;7.25;6.75;;;;;;;;5068265;28;8868;-79
2020/12/24 14:37:48;;;;;;;;;7.75;7.75;;;;;;;;5058131;28;8853;-80
2020/12/24 14:40:14;;;;;;;;;8.00;8.00;;;;;;;;5056672;28;8860;-79
2020/12/24 14:42:40;;;;;;;;;7.75;7.75;;;;;;;;5053923;28;12334;-74
2020/12/24 14:45:06;;;;;;;;;9.50;9.00;;;;;;;;5054292;28;8863;-75
2020/12/24 14:47:32;;;;;;;;;9.25;7.00;;;;;;;;5059196;28;8877;-75
2020/12/24 14:49:58;;;;;;;;;10.25;8.50;;;;;;;;5061817;28;8879;-77
2020/12/24 14:52:24;;;;;;;;;9.25;7.50;;;;;;;;5055754;28;8848;-74
2020/12/24 14:54:51;;;;;;;;;9.50;9.00;;;;;;;;5055997;28;11536;-74
2020/12/24 14:57:17;;;;;;;;;8.50;6.50;;;;;;;;5053976;28;8946;-73
2020/12/24 14:59:43;;;;;;;;;8.25;8.00;;;;;;;;5043312;28;11548;-78
2020/12/24 15:02:09;;;;;;;;;10.00;8.25;;;;;;;;5040737;28;8861;-78
2020/12/24 15:04:35;;;;;;;;;9.00;9.00;;;;;;;;5041375;28;11479;-76
2020/12/24 15:07:01;;;;;;;;;8.25;7.00;;;;;;;;5037689;28;8892;-78
2020/12/24 15:09:27;;;;;;;;;7.75;5.00;;;;;;;;5042255;28;8907;-80
2020/12/24 15:11:54;;;;;;;;;8.00;8.00;;;;;;;;5039155;28;11644;-76
2020/12/24 15:14:19;;;;;;;;;4.50;4.00;;;;;;;;5041074;28;8959;-75
2020/12/24 15:16:46;;;;;;;;;8.50;6.25;;;;;;;;5043467;28;11486;-73
2020/12/24 15:19:12;;;;;;;;;10.00;6.00;;;;;;;;5044831;28;8858;-73
2020/12/24 15:21:38;;;;;;;;;8.00;5.75;;;;;;;;5043801;28;11492;-73
2020/12/24 15:24:03;;;;;;;;;5.25;5.25;;;;;;;;5043338;28;12268;-75
2020/12/24 15:26:29;;;;;;;;;7.50;7.00;;;;;;;;5042068;28;8844;-71
2020/12/24 15:29:03;;;;;;;;;8.50;8.50;;;;;;;;5041921;28;8845;-72
2020/12/24 15:31:29;;;;;;;;;8.00;7.75;;;;;;;;5042241;28;8832;-72
2020/12/24 15:33:54;;;;;;;;;10.75;9.00;;;;;;;;5041458;28;11707;-70
2020/12/24 15:36:20;;;;;;;;;10.25;8.50;;;;;;;;5041391;28;8892;-70
2020/12/24 15:38:46;;;;;;;;;9.25;9.25;;;;;;;;5042772;28;8849;-71
2020/12/24 15:41:12;;;;;;;;;8.00;8.00;;;;;;;;5039747;28;8846;-72
2020/12/24 16:54:39;;;;;;;;;14.25;10.25;;;;;;;;4997257;28;9049;-74
2020/12/24 16:57:05;;;;;;;;;11.75;11.75;;;;;;;;5018745;28;8863;-72
2020/12/24 16:59:31;;;;;;;;;11.50;10.00;;;;;;;;5017314;28;11622;-69
2020/12/24 17:01:57;;;;;;;;;13.00;12.00;;;;;;;;5018567;28;8868;-69
2020/12/24 17:04:23;;;;;;;;;12.50;12.00;;;;;;;;5017163;28;9560;-69
2020/12/24 17:06:52;;;;;;;;;13.25;11.25;;;;;;;;5020571;28;11596;-69
2020/12/24 17:09:18;;;;;;;;;21.25;19.25;;;;;;;;5017899;28;8926;-70
2020/12/24 17:11:45;;;;;;;;;19.00;17.25;;;;;;;;5019963;28;11626;-71
2020/12/24 17:14:11;;;;;;;;;28.25;26.50;;;;;;;;5013067;28;12396;-68
2020/12/24 17:16:37;;;;;;;;;19.00;17.75;;;;;;;;5019333;28;11636;-70
2020/12/24 17:19:03;;;;;;;;;17.75;16.25;;;;;;;;5014460;28;11592;-68
2020/12/24 17:21:30;;;;;;;;;15.75;12.50;;;;;;;;5008776;28;122145;-69
2020/12/24 17:23:56;;;;;;;;;15.75;15.75;;;;;;;;5008808;28;12433;-71
2020/12/24 17:26:23;;;;;;;;;13.00;12.75;;;;;;;;5008760;28;11556;-72
2020/12/24 17:28:50;;;;;;;;;17.75;15.75;;;;;;;;5006499;28;11601;-74
2020/12/24 17:31:17;;;;;;;;;11.50;9.50;;;;;;;;5000956;28;11751;-73
2020/12/24 17:33:43;;;;;;;;;12.75;12.25;;;;;;;;5006406;28;11537;-73
2020/12/24 17:36:09;;;;;;;;;13.75;12.00;;;;;;;;5008273;28;11642;-73
2020/12/24 17:38:35;;;;;;;;;10.00;9.25;;;;;;;;5007221;28;11620;-73
2020/12/24 17:41:01;;;;;;;;;9.75;9.25;;;;;;;;5009020;28;8905;-76
2020/12/24 17:43:27;;;;;;;;;10.50;8.75;;;;;;;;5007413;28;11522;-72
2020/12/24 17:45:54;;;;;;;;;9.00;9.00;;;;;;;;5008982;28;8963;-72
2020/12/24 17:48:20;;;;;;;;;11.50;10.00;;;;;;;;5005990;28;11518;-72
2020/12/24 17:50:46;;;;;;;;;7.75;7.25;;;;;;;;5007083;28;11525;-72
2020/12/24 17:53:12;;;;;;;;;9.25;9.25;;;;;;;;5007722;28;11479;-72
2020/12/24 17:55:38;;;;;;;;;8.00;7.00;;;;;;;;5008729;28;8842;-73
2020/12/24 17:58:04;;;;;;;;;6.00;6.00;;;;;;;;5007452;28;11625;-72
2020/12/24 18:00:30;;;;;;;;;1.25;1.25;;;;;;;;5007755;28;8931;-72
2020/12/24 18:02:57;;;;;;;;;5.00;5.00;;;;;;;;5010832;28;9594;-71
2020/12/24 18:05:23;;;;;;;;;5.25;4.75;;;;;;;;5006594;28;9028;-71
2020/12/24 18:07:49;;;;;;;;;8.00;5.00;;;;;;;;5007495;28;11639;-70
2020/12/24 18:10:15;;;;;;;;;7.50;7.50;;;;;;;;5005919;28;11878;-68
2020/12/24 18:12:41;;;;;;;;;7.50;7.50;;;;;;;;5007180;28;8873;-67
2020/12/24 18:15:07;;;;;;;;;7.25;7.25;;;;;;;;5006944;28;8878;-70
2020/12/24 18:17:33;;;;;;;;;10.50;8.00;;;;;;;;5004919;28;8899;-71
2020/12/24 18:20:00;;;;;;;;;5.50;5.50;;;;;;;;5005643;28;8931;-70
2020/12/24 18:22:26;;;;;;;;;14.00;13.00;;;;;;;;5006604;28;11547;-71
2020/12/24 18:24:53;;;;;;;;;15.25;12.50;;;;;;;;5007268;28;11565;-71
2020/12/24 18:27:19;;;;;;;;;5.00;5.00;;;;;;;;5006128;28;8899;-70
2020/12/24 18:29:45;;;;;;;;;5.75;5.00;;;;;;;;5007122;28;12297;-69
2020/12/24 18:32:11;;;;;;;;;8.75;8.75;;;;;;;;5006094;28;11613;-70
2020/12/24 18:34:40;;;;;;;;;9.75;7.00;;;;;;;;5010147;28;8897;-70
2020/12/24 18:37:07;;;;;;;;;11.25;11.25;;;;;;;;5011215;28;11572;-68
2020/12/24 18:39:33;;;;;;;;;10.25;9.25;;;;;;;;5009640;28;11587;-69
2020/12/24 18:41:59;;;;;;;;;8.50;8.50;;;;;;;;5007279;28;11621;-68
2020/12/24 18:44:25;;;;;;;;;10.25;9.00;;;;;;;;5006693;28;11551;-69
2020/12/24 18:46:51;;;;;;;;;8.50;5.25;;;;;;;;5003519;28;8848;-68
2020/12/24 18:49:17;;;;;;;;;8.25;8.00;;;;;;;;5010792;28;11602;-69
2020/12/24 18:51:43;;;;;;;;;8.75;7.75;;;;;;;;5012745;28;11535;-69
2020/12/24 18:54:10;;;;;;;;;8.00;7.00;;;;;;;;5011443;28;11544;-72
2020/12/24 18:56:36;;;;;;;;;7.25;6.00;;;;;;;;5011557;28;11542;-68
2020/12/24 18:59:02;;;;;;;;;5.25;4.25;;;;;;;;5012835;28;11563;-69
2020/12/24 19:01:32;;;;;;;;;9.00;9.00;;;;;;;;5012930;28;8849;-71
2020/12/24 19:03:58;;;;;;;;;8.75;8.00;;;;;;;;5013219;28;8854;-69
2020/12/24 19:06:24;;;;;;;;;7.00;5.75;;;;;;;;5012642;28;11708;-68
2020/12/24 19:08:51;;;;;;;;;10.00;6.00;;;;;;;;5008888;28;9592;-68
2020/12/24 19:11:22;;;;;;;;;5.75;5.75;;;;;;;;5012776;28;11545;-68
2020/12/24 19:13:49;;;;;;;;;10.00;10.00;;;;;;;;5012586;28;11635;-68
2020/12/24 19:16:15;;;;;;;;;9.50;8.50;;;;;;;;5012464;28;12543;-68
2020/12/24 19:18:41;;;;;;;;;12.75;10.50;;;;;;;;5012658;28;11541;-68
2020/12/24 19:21:07;;;;;;;;;9.50;9.50;;;;;;;;5012985;28;8822;-69
2020/12/24 19:23:33;;;;;;;;;10.00;7.75;;;;;;;;5008074;28;11580;-68
2020/12/24 19:25:59;;;;;;;;;10.25;8.25;;;;;;;;5011280;28;8862;-68
2020/12/24 19:28:26;;;;;;;;;9.00;9.00;;;;;;;;5010410;28;8846;-68
2020/12/24 22:49:28;;;;;;;;;5.25;4.75;;;;;;;;5060815;27;13379;-77
2020/12/24 22:51:54;;;;;;;;;3.00;1.00;;;;;;;;5096968;28;8839;-76
2020/12/24 22:54:21;;;;;;;;;4.00;1.75;;;;;;;;5098743;28;11511;-75
2020/12/24 22:56:47;;;;;;;;;3.00;2.00;;;;;;;;5101210;28;11493;-72